sensor_id;sensor_type;location;lat;lon;timestamp;P1;durP1;ratioP1;P2;durP2;ratioP2
21661;SDS011;10992;48.170;8.596;2024-02-14T00:00:18;7.00;;;2.85;;
21661;SDS011;10992;48.170;8.596;2024-02-14T00:02:47;8.52;;;3.45;;
21661;SDS011;10992;48.170;8.596;2024-02-14T00:05:18;8.00;;;2.63;;
21661;SDS011;10992;48.170;8.596;2024-02-14T00:07:45;7.28;;;2.83;;
21661;SDS011;10992;48.170;8.596;2024-02-14T00:10:11;4.20;;;2.80;;
21661;SDS011;10992;48.170;8.596;2024-02-14T00:12:38;9.18;;;3.08;;
21661;SDS011;10992;48.170;8.596;2024-02-14T00:15:06;8.70;;;2.90;;
21661;SDS011;10992;48.170;8.596;2024-02-14T00:17:34;7.18;;;3.15;;
21661;SDS011;10992;48.170;8.596;2024-02-14T00:20:02;7.15;;;3.28;;
21661;SDS011;10992;48.170;8.596;2024-02-14T00:22:30;6.88;;;3.00;;
21661;SDS011;10992;48.170;8.596;2024-02-14T00:24:57;7.05;;;2.85;;
21661;SDS011;10992;48.170;8.596;2024-02-14T00:27:24;4.95;;;2.90;;
21661;SDS011;10992;48.170;8.596;2024-02-14T00:29:52;7.43;;;3.55;;
21661;SDS011;10992;48.170;8.596;2024-02-14T00:32:21;6.50;;;2.95;;
21661;SDS011;10992;48.170;8.596;2024-02-14T00:34:48;4.32;;;2.78;;
21661;SDS011;10992;48.170;8.596;2024-02-14T00:37:17;6.22;;;2.65;;
21661;SDS011;10992;48.170;8.596;2024-02-14T00:39:45;5.93;;;3.08;;
21661;SDS011;10992;48.170;8.596;2024-02-14T00:42:14;4.95;;;2.70;;
21661;SDS011;10992;48.170;8.596;2024-02-14T00:44:41;3.53;;;2.70;;
21661;SDS011;10992;48.170;8.596;2024-02-14T00:47:08;9.90;;;3.78;;
21661;SDS011;10992;48.170;8.596;2024-02-14T00:49:35;4.88;;;2.67;;
21661;SDS011;10992;48.170;8.596;2024-02-14T00:52:03;11.05;;;3.15;;
21661;SDS011;10992;48.170;8.596;2024-02-14T00:54:30;6.13;;;3.30;;
21661;SDS011;10992;48.170;8.596;2024-02-14T00:56:57;4.03;;;2.70;;
21661;SDS011;10992;48.170;8.596;2024-02-14T00:59:24;8.40;;;2.92;;
21661;SDS011;10992;48.170;8.596;2024-02-14T01:01:51;6.22;;;2.67;;
21661;SDS011;10992;48.170;8.596;2024-02-14T01:04:18;5.07;;;3.30;;
21661;SDS011;10992;48.170;8.596;2024-02-14T01:06:45;4.88;;;2.95;;
21661;SDS011;10992;48.170;8.596;2024-02-14T01:09:12;5.50;;;2.63;;
21661;SDS011;10992;48.170;8.596;2024-02-14T01:11:39;6.85;;;2.85;;
21661;SDS011;10992;48.170;8.596;2024-02-14T01:14:06;5.05;;;2.75;;
21661;SDS011;10992;48.170;8.596;2024-02-14T01:16:32;4.72;;;2.47;;
21661;SDS011;10992;48.170;8.596;2024-02-14T01:18:59;5.93;;;2.67;;
21661;SDS011;10992;48.170;8.596;2024-02-14T01:21:27;6.22;;;3.35;;
21661;SDS011;10992;48.170;8.596;2024-02-14T01:23:53;5.60;;;2.70;;
21661;SDS011;10992;48.170;8.596;2024-02-14T01:26:20;5.28;;;2.88;;
21661;SDS011;10992;48.170;8.596;2024-02-14T01:28:47;8.93;;;2.75;;
21661;SDS011;10992;48.170;8.596;2024-02-14T01:31:14;4.88;;;2.80;;
21661;SDS011;10992;48.170;8.596;2024-02-14T01:33:41;5.68;;;3.15;;
21661;SDS011;10992;48.170;8.596;2024-02-14T01:36:10;7.25;;;3.53;;
21661;SDS011;10992;48.170;8.596;2024-02-14T01:38:37;6.97;;;2.80;;
21661;SDS011;10992;48.170;8.596;2024-02-14T01:41:04;6.13;;;3.45;;
21661;SDS011;10992;48.170;8.596;2024-02-14T01:43:32;4.68;;;2.90;;
21661;SDS011;10992;48.170;8.596;2024-02-14T01:46:03;6.18;;;2.60;;
21661;SDS011;10992;48.170;8.596;2024-02-14T01:48:33;5.88;;;3.00;;
21661;SDS011;10992;48.170;8.596;2024-02-14T01:51:02;6.32;;;3.35;;
21661;SDS011;10992;48.170;8.596;2024-02-14T01:53:31;6.32;;;2.70;;
21661;SDS011;10992;48.170;8.596;2024-02-14T01:55:58;9.15;;;3.60;;
21661;SDS011;10992;48.170;8.596;2024-02-14T01:58:27;5.85;;;2.83;;
21661;SDS011;10992;48.170;8.596;2024-02-14T02:00:55;7.20;;;3.35;;
21661;SDS011;10992;48.170;8.596;2024-02-14T02:03:26;6.80;;;3.08;;
21661;SDS011;10992;48.170;8.596;2024-02-14T02:05:53;4.85;;;3.08;;
21661;SDS011;10992;48.170;8.596;2024-02-14T02:08:21;5.70;;;3.22;;
21661;SDS011;10992;48.170;8.596;2024-02-14T02:10:48;5.35;;;2.60;;
21661;SDS011;10992;48.170;8.596;2024-02-14T02:13:16;6.47;;;2.67;;
21661;SDS011;10992;48.170;8.596;2024-02-14T02:15:43;5.80;;;3.15;;
21661;SDS011;10992;48.170;8.596;2024-02-14T02:18:13;5.68;;;3.28;;
21661;SDS011;10992;48.170;8.596;2024-02-14T02:20:41;7.65;;;2.90;;
21661;SDS011;10992;48.170;8.596;2024-02-14T02:23:12;7.10;;;3.00;;
21661;SDS011;10992;48.170;8.596;2024-02-14T02:25:43;5.97;;;2.80;;
21661;SDS011;10992;48.170;8.596;2024-02-14T02:28:10;5.65;;;3.22;;
21661;SDS011;10992;48.170;8.596;2024-02-14T02:30:37;6.40;;;2.97;;
21661;SDS011;10992;48.170;8.596;2024-02-14T02:33:04;6.32;;;2.95;;
21661;SDS011;10992;48.170;8.596;2024-02-14T02:35:33;6.13;;;2.63;;
21661;SDS011;10992;48.170;8.596;2024-02-14T02:38:01;6.22;;;3.28;;
21661;SDS011;10992;48.170;8.596;2024-02-14T02:40:28;8.35;;;3.22;;
21661;SDS011;10992;48.170;8.596;2024-02-14T02:42:55;5.10;;;3.30;;
21661;SDS011;10992;48.170;8.596;2024-02-14T02:45:21;8.52;;;3.70;;
21661;SDS011;10992;48.170;8.596;2024-02-14T02:47:48;9.52;;;3.55;;
21661;SDS011;10992;48.170;8.596;2024-02-14T02:50:19;9.30;;;4.03;;
21661;SDS011;10992;48.170;8.596;2024-02-14T02:52:49;8.77;;;3.50;;
21661;SDS011;10992;48.170;8.596;2024-02-14T02:55:15;9.02;;;3.67;;
21661;SDS011;10992;48.170;8.596;2024-02-14T02:57:44;5.82;;;3.40;;
21661;SDS011;10992;48.170;8.596;2024-02-14T03:00:12;5.20;;;3.75;;
21661;SDS011;10992;48.170;8.596;2024-02-14T03:02:40;9.63;;;3.63;;
21661;SDS011;10992;48.170;8.596;2024-02-14T03:05:11;4.75;;;3.50;;
21661;SDS011;10992;48.170;8.596;2024-02-14T03:07:44;8.60;;;3.55;;
21661;SDS011;10992;48.170;8.596;2024-02-14T03:10:12;6.28;;;3.58;;
21661;SDS011;10992;48.170;8.596;2024-02-14T03:12:41;7.70;;;4.07;;
21661;SDS011;10992;48.170;8.596;2024-02-14T03:15:08;8.60;;;3.47;;
21661;SDS011;10992;48.170;8.596;2024-02-14T03:17:37;7.43;;;3.75;;
21661;SDS011;10992;48.170;8.596;2024-02-14T03:20:04;6.75;;;3.38;;
21661;SDS011;10992;48.170;8.596;2024-02-14T03:22:44;7.63;;;3.75;;
21661;SDS011;10992;48.170;8.596;2024-02-14T03:25:12;8.73;;;3.58;;
21661;SDS011;10992;48.170;8.596;2024-02-14T03:27:39;7.50;;;3.45;;
21661;SDS011;10992;48.170;8.596;2024-02-14T03:30:06;6.40;;;3.92;;
21661;SDS011;10992;48.170;8.596;2024-02-14T03:32:34;6.93;;;3.47;;
21661;SDS011;10992;48.170;8.596;2024-02-14T03:35:01;6.57;;;3.35;;
21661;SDS011;10992;48.170;8.596;2024-02-14T03:37:28;5.72;;;3.38;;
21661;SDS011;10992;48.170;8.596;2024-02-14T03:39:55;4.38;;;2.85;;
21661;SDS011;10992;48.170;8.596;2024-02-14T03:42:22;8.77;;;3.50;;
21661;SDS011;10992;48.170;8.596;2024-02-14T03:44:49;7.40;;;3.25;;
21661;SDS011;10992;48.170;8.596;2024-02-14T03:47:15;4.78;;;2.92;;
21661;SDS011;10992;48.170;8.596;2024-02-14T03:49:42;4.15;;;3.15;;
21661;SDS011;10992;48.170;8.596;2024-02-14T03:52:09;7.18;;;3.30;;
21661;SDS011;10992;48.170;8.596;2024-02-14T03:54:37;4.38;;;3.30;;
21661;SDS011;10992;48.170;8.596;2024-02-14T03:57:05;5.70;;;3.25;;
21661;SDS011;10992;48.170;8.596;2024-02-14T03:59:37;5.97;;;3.63;;
21661;SDS011;10992;48.170;8.596;2024-02-14T04:02:07;6.15;;;3.42;;
21661;SDS011;10992;48.170;8.596;2024-02-14T04:04:36;5.90;;;3.15;;
21661;SDS011;10992;48.170;8.596;2024-02-14T04:07:05;6.43;;;3.53;;
21661;SDS011;10992;48.170;8.596;2024-02-14T04:09:32;4.18;;;3.17;;
21661;SDS011;10992;48.170;8.596;2024-02-14T04:11:59;6.05;;;3.45;;
21661;SDS011;10992;48.170;8.596;2024-02-14T04:14:26;4.82;;;3.58;;
21661;SDS011;10992;48.170;8.596;2024-02-14T04:16:54;9.30;;;3.70;;
21661;SDS011;10992;48.170;8.596;2024-02-14T04:19:21;4.13;;;3.17;;
21661;SDS011;10992;48.170;8.596;2024-02-14T04:21:48;6.68;;;3.28;;
21661;SDS011;10992;48.170;8.596;2024-02-14T04:24:15;5.78;;;2.80;;
21661;SDS011;10992;48.170;8.596;2024-02-14T04:26:42;7.15;;;3.85;;
21661;SDS011;10992;48.170;8.596;2024-02-14T04:29:09;5.32;;;3.22;;
21661;SDS011;10992;48.170;8.596;2024-02-14T04:31:36;8.80;;;3.60;;
21661;SDS011;10992;48.170;8.596;2024-02-14T04:34:03;5.93;;;3.67;;
21661;SDS011;10992;48.170;8.596;2024-02-14T04:36:31;5.80;;;3.45;;
21661;SDS011;10992;48.170;8.596;2024-02-14T04:38:58;9.05;;;3.50;;
21661;SDS011;10992;48.170;8.596;2024-02-14T04:41:25;5.40;;;2.97;;
21661;SDS011;10992;48.170;8.596;2024-02-14T04:43:52;8.10;;;3.10;;
21661;SDS011;10992;48.170;8.596;2024-02-14T04:46:19;8.93;;;3.60;;
21661;SDS011;10992;48.170;8.596;2024-02-14T04:48:48;6.65;;;3.53;;
21661;SDS011;10992;48.170;8.596;2024-02-14T04:51:15;10.95;;;3.83;;
21661;SDS011;10992;48.170;8.596;2024-02-14T04:53:42;9.30;;;3.78;;
21661;SDS011;10992;48.170;8.596;2024-02-14T04:56:09;7.70;;;3.55;;
21661;SDS011;10992;48.170;8.596;2024-02-14T04:58:36;5.55;;;3.72;;
21661;SDS011;10992;48.170;8.596;2024-02-14T05:01:03;5.38;;;3.55;;
21661;SDS011;10992;48.170;8.596;2024-02-14T05:03:30;4.90;;;3.05;;
21661;SDS011;10992;48.170;8.596;2024-02-14T05:05:57;7.85;;;3.60;;
21661;SDS011;10992;48.170;8.596;2024-02-14T05:08:25;6.70;;;3.42;;
21661;SDS011;10992;48.170;8.596;2024-02-14T05:10:52;7.03;;;3.63;;
21661;SDS011;10992;48.170;8.596;2024-02-14T05:13:19;6.75;;;3.55;;
21661;SDS011;10992;48.170;8.596;2024-02-14T05:15:46;7.35;;;3.45;;
21661;SDS011;10992;48.170;8.596;2024-02-14T05:18:13;7.97;;;3.50;;
21661;SDS011;10992;48.170;8.596;2024-02-14T05:20:41;6.20;;;3.22;;
21661;SDS011;10992;48.170;8.596;2024-02-14T05:23:08;4.88;;;3.33;;
21661;SDS011;10992;48.170;8.596;2024-02-14T05:25:37;4.22;;;3.08;;
21661;SDS011;10992;48.170;8.596;2024-02-14T05:28:05;7.22;;;3.58;;
21661;SDS011;10992;48.170;8.596;2024-02-14T05:30:32;6.95;;;3.60;;
21661;SDS011;10992;48.170;8.596;2024-02-14T05:32:59;7.93;;;3.55;;
21661;SDS011;10992;48.170;8.596;2024-02-14T05:35:27;4.53;;;3.25;;
21661;SDS011;10992;48.170;8.596;2024-02-14T05:37:54;7.38;;;3.13;;
21661;SDS011;10992;48.170;8.596;2024-02-14T05:40:22;10.80;;;3.85;;
21661;SDS011;10992;48.170;8.596;2024-02-14T05:42:49;6.97;;;3.20;;
21661;SDS011;10992;48.170;8.596;2024-02-14T05:45:16;9.30;;;3.33;;
21661;SDS011;10992;48.170;8.596;2024-02-14T05:47:43;8.43;;;3.40;;
21661;SDS011;10992;48.170;8.596;2024-02-14T05:50:10;5.28;;;3.28;;
21661;SDS011;10992;48.170;8.596;2024-02-14T05:52:37;7.10;;;3.35;;
21661;SDS011;10992;48.170;8.596;2024-02-14T05:55:05;6.43;;;3.67;;
21661;SDS011;10992;48.170;8.596;2024-02-14T05:57:31;5.57;;;2.92;;
21661;SDS011;10992;48.170;8.596;2024-02-14T05:59:58;7.28;;;3.55;;
21661;SDS011;10992;48.170;8.596;2024-02-14T06:02:36;7.32;;;3.30;;
21661;SDS011;10992;48.170;8.596;2024-02-14T06:05:03;7.22;;;3.45;;
21661;SDS011;10992;48.170;8.596;2024-02-14T06:07:31;7.55;;;3.58;;
21661;SDS011;10992;48.170;8.596;2024-02-14T06:09:57;9.98;;;3.50;;
21661;SDS011;10992;48.170;8.596;2024-02-14T06:12:24;7.38;;;3.28;;
21661;SDS011;10992;48.170;8.596;2024-02-14T06:14:51;4.80;;;3.17;;
21661;SDS011;10992;48.170;8.596;2024-02-14T06:17:18;5.65;;;2.72;;
21661;SDS011;10992;48.170;8.596;2024-02-14T06:19:45;4.82;;;3.00;;
21661;SDS011;10992;48.170;8.596;2024-02-14T06:22:11;6.82;;;3.10;;
21661;SDS011;10992;48.170;8.596;2024-02-14T06:24:38;5.55;;;2.63;;
21661;SDS011;10992;48.170;8.596;2024-02-14T06:27:06;7.18;;;3.08;;
21661;SDS011;10992;48.170;8.596;2024-02-14T06:29:33;8.30;;;2.88;;
21661;SDS011;10992;48.170;8.596;2024-02-14T06:32:00;7.05;;;3.47;;
21661;SDS011;10992;48.170;8.596;2024-02-14T06:34:27;8.90;;;3.10;;
21661;SDS011;10992;48.170;8.596;2024-02-14T06:36:54;6.28;;;3.00;;
21661;SDS011;10992;48.170;8.596;2024-02-14T06:39:21;6.20;;;2.88;;
21661;SDS011;10992;48.170;8.596;2024-02-14T06:41:48;7.18;;;3.25;;
21661;SDS011;10992;48.170;8.596;2024-02-14T06:44:15;5.07;;;2.70;;
21661;SDS011;10992;48.170;8.596;2024-02-14T06:46:42;7.63;;;3.40;;
21661;SDS011;10992;48.170;8.596;2024-02-14T06:49:09;6.00;;;2.72;;
21661;SDS011;10992;48.170;8.596;2024-02-14T06:51:36;5.93;;;3.17;;
21661;SDS011;10992;48.170;8.596;2024-02-14T06:54:03;7.28;;;2.80;;
21661;SDS011;10992;48.170;8.596;2024-02-14T06:56:30;4.43;;;2.53;;
21661;SDS011;10992;48.170;8.596;2024-02-14T06:58:57;6.35;;;3.08;;
21661;SDS011;10992;48.170;8.596;2024-02-14T07:01:26;5.97;;;3.08;;
21661;SDS011;10992;48.170;8.596;2024-02-14T07:03:55;9.10;;;2.65;;
21661;SDS011;10992;48.170;8.596;2024-02-14T07:06:22;4.15;;;2.75;;
21661;SDS011;10992;48.170;8.596;2024-02-14T07:08:49;2.95;;;2.28;;
21661;SDS011;10992;48.170;8.596;2024-02-14T07:11:16;7.47;;;3.17;;
21661;SDS011;10992;48.170;8.596;2024-02-14T07:13:44;6.97;;;3.58;;
21661;SDS011;10992;48.170;8.596;2024-02-14T07:16:11;5.95;;;3.58;;
21661;SDS011;10992;48.170;8.596;2024-02-14T07:18:37;5.40;;;2.72;;
21661;SDS011;10992;48.170;8.596;2024-02-14T07:21:05;5.75;;;2.72;;
21661;SDS011;10992;48.170;8.596;2024-02-14T07:23:32;3.90;;;2.80;;
21661;SDS011;10992;48.170;8.596;2024-02-14T07:26:00;7.65;;;2.90;;
21661;SDS011;10992;48.170;8.596;2024-02-14T07:28:27;6.22;;;2.42;;
21661;SDS011;10992;48.170;8.596;2024-02-14T07:30:54;5.80;;;2.72;;
21661;SDS011;10992;48.170;8.596;2024-02-14T07:33:21;3.28;;;2.45;;
21661;SDS011;10992;48.170;8.596;2024-02-14T07:35:48;4.90;;;3.05;;
21661;SDS011;10992;48.170;8.596;2024-02-14T07:38:15;5.68;;;2.67;;
21661;SDS011;10992;48.170;8.596;2024-02-14T07:40:42;4.32;;;2.80;;
21661;SDS011;10992;48.170;8.596;2024-02-14T07:43:09;7.13;;;3.25;;
21661;SDS011;10992;48.170;8.596;2024-02-14T07:45:36;5.82;;;2.97;;
21661;SDS011;10992;48.170;8.596;2024-02-14T07:48:03;5.80;;;2.65;;
21661;SDS011;10992;48.170;8.596;2024-02-14T07:50:31;4.10;;;2.42;;
21661;SDS011;10992;48.170;8.596;2024-02-14T07:52:58;3.53;;;2.40;;
21661;SDS011;10992;48.170;8.596;2024-02-14T07:55:25;6.88;;;2.72;;
21661;SDS011;10992;48.170;8.596;2024-02-14T07:57:52;8.02;;;2.70;;
21661;SDS011;10992;48.170;8.596;2024-02-14T08:00:19;6.93;;;2.25;;
21661;SDS011;10992;48.170;8.596;2024-02-14T08:02:49;4.80;;;2.40;;
21661;SDS011;10992;48.170;8.596;2024-02-14T08:05:16;7.07;;;2.20;;
21661;SDS011;10992;48.170;8.596;2024-02-14T08:07:46;6.18;;;2.55;;
21661;SDS011;10992;48.170;8.596;2024-02-14T08:10:13;5.72;;;2.33;;
21661;SDS011;10992;48.170;8.596;2024-02-14T08:12:40;6.25;;;2.38;;
21661;SDS011;10992;48.170;8.596;2024-02-14T08:15:07;5.88;;;2.45;;
21661;SDS011;10992;48.170;8.596;2024-02-14T08:17:34;6.15;;;2.78;;
21661;SDS011;10992;48.170;8.596;2024-02-14T08:20:02;4.57;;;2.17;;
21661;SDS011;10992;48.170;8.596;2024-02-14T08:22:30;4.90;;;2.55;;
21661;SDS011;10992;48.170;8.596;2024-02-14T08:24:57;3.03;;;2.08;;
21661;SDS011;10992;48.170;8.596;2024-02-14T08:27:25;2.95;;;2.20;;
21661;SDS011;10992;48.170;8.596;2024-02-14T08:29:54;5.38;;;2.53;;
21661;SDS011;10992;48.170;8.596;2024-02-14T08:32:22;8.18;;;2.97;;
21661;SDS011;10992;48.170;8.596;2024-02-14T08:34:52;5.28;;;3.10;;
21661;SDS011;10992;48.170;8.596;2024-02-14T08:37:19;4.72;;;3.15;;
21661;SDS011;10992;48.170;8.596;2024-02-14T08:39:46;5.78;;;3.08;;
21661;SDS011;10992;48.170;8.596;2024-02-14T08:42:13;8.07;;;3.80;;
21661;SDS011;10992;48.170;8.596;2024-02-14T08:44:40;6.32;;;4.03;;
21661;SDS011;10992;48.170;8.596;2024-02-14T08:47:07;4.38;;;3.30;;
21661;SDS011;10992;48.170;8.596;2024-02-14T08:49:34;6.05;;;3.25;;
21661;SDS011;10992;48.170;8.596;2024-02-14T08:52:01;4.47;;;2.72;;
21661;SDS011;10992;48.170;8.596;2024-02-14T08:54:28;7.65;;;4.45;;
21661;SDS011;10992;48.170;8.596;2024-02-14T08:56:54;5.80;;;2.92;;
21661;SDS011;10992;48.170;8.596;2024-02-14T08:59:25;4.32;;;2.60;;
21661;SDS011;10992;48.170;8.596;2024-02-14T09:01:52;5.63;;;2.78;;
21661;SDS011;10992;48.170;8.596;2024-02-14T09:04:19;5.75;;;2.40;;
21661;SDS011;10992;48.170;8.596;2024-02-14T09:06:46;3.60;;;2.13;;
21661;SDS011;10992;48.170;8.596;2024-02-14T09:09:13;5.53;;;2.55;;
21661;SDS011;10992;48.170;8.596;2024-02-14T09:11:40;4.63;;;2.67;;
21661;SDS011;10992;48.170;8.596;2024-02-14T09:14:07;3.50;;;2.38;;
21661;SDS011;10992;48.170;8.596;2024-02-14T09:16:37;4.97;;;2.72;;
21661;SDS011;10992;48.170;8.596;2024-02-14T09:19:04;2.97;;;1.90;;
21661;SDS011;10992;48.170;8.596;2024-02-14T09:21:33;4.82;;;2.67;;
21661;SDS011;10992;48.170;8.596;2024-02-14T09:24:03;4.05;;;2.22;;
21661;SDS011;10992;48.170;8.596;2024-02-14T09:26:30;3.67;;;1.98;;
21661;SDS011;10992;48.170;8.596;2024-02-14T09:28:57;4.00;;;2.42;;
21661;SDS011;10992;48.170;8.596;2024-02-14T09:31:24;4.82;;;2.03;;
21661;SDS011;10992;48.170;8.596;2024-02-14T09:33:51;3.15;;;1.90;;
21661;SDS011;10992;48.170;8.596;2024-02-14T09:36:24;4.35;;;2.13;;
21661;SDS011;10992;48.170;8.596;2024-02-14T09:38:51;11.20;;;4.22;;
21661;SDS011;10992;48.170;8.596;2024-02-14T09:41:22;5.00;;;2.50;;
21661;SDS011;10992;48.170;8.596;2024-02-14T09:43:53;6.45;;;2.67;;
21661;SDS011;10992;48.170;8.596;2024-02-14T09:46:20;6.53;;;2.00;;
21661;SDS011;10992;48.170;8.596;2024-02-14T09:48:53;3.40;;;1.38;;
21661;SDS011;10992;48.170;8.596;2024-02-14T09:51:22;2.72;;;0.90;;
21661;SDS011;10992;48.170;8.596;2024-02-14T09:53:51;1.92;;;0.70;;
21661;SDS011;10992;48.170;8.596;2024-02-14T09:56:21;3.13;;;0.70;;
21661;SDS011;10992;48.170;8.596;2024-02-14T09:58:51;1.98;;;0.82;;
21661;SDS011;10992;48.170;8.596;2024-02-14T10:01:25;0.95;;;0.45;;
21661;SDS011;10992;48.170;8.596;2024-02-14T10:03:53;0.93;;;0.55;;
21661;SDS011;10992;48.170;8.596;2024-02-14T10:06:21;1.48;;;0.60;;
21661;SDS011;10992;48.170;8.596;2024-02-14T10:08:49;0.70;;;0.50;;
21661;SDS011;10992;48.170;8.596;2024-02-14T10:11:30;2.35;;;0.65;;
21661;SDS011;10992;48.170;8.596;2024-02-14T10:14:00;1.25;;;0.70;;
21661;SDS011;10992;48.170;8.596;2024-02-14T10:16:30;1.23;;;0.70;;
21661;SDS011;10992;48.170;8.596;2024-02-14T10:18:57;1.13;;;0.68;;
21661;SDS011;10992;48.170;8.596;2024-02-14T10:21:25;2.97;;;0.68;;
21661;SDS011;10992;48.170;8.596;2024-02-14T10:23:54;0.80;;;0.50;;
21661;SDS011;10992;48.170;8.596;2024-02-14T10:26:24;0.30;;;0.30;;
21661;SDS011;10992;48.170;8.596;2024-02-14T10:28:51;0.95;;;0.68;;
21661;SDS011;10992;48.170;8.596;2024-02-14T10:31:18;1.60;;;0.50;;
21661;SDS011;10992;48.170;8.596;2024-02-14T10:33:45;1.08;;;0.40;;
21661;SDS011;10992;48.170;8.596;2024-02-14T10:36:12;0.80;;;0.50;;
21661;SDS011;10992;48.170;8.596;2024-02-14T10:38:40;0.90;;;0.50;;
21661;SDS011;10992;48.170;8.596;2024-02-14T10:41:08;1.75;;;0.52;;
21661;SDS011;10992;48.170;8.596;2024-02-14T10:43:37;0.40;;;0.35;;
21661;SDS011;10992;48.170;8.596;2024-02-14T10:46:19;3.45;;;0.90;;
21661;SDS011;10992;48.170;8.596;2024-02-14T10:48:53;0.90;;;0.35;;
21661;SDS011;10992;48.170;8.596;2024-02-14T10:51:22;2.47;;;0.55;;
21661;SDS011;10992;48.170;8.596;2024-02-14T10:53:51;0.80;;;0.50;;
21661;SDS011;10992;48.170;8.596;2024-02-14T10:56:19;1.20;;;0.55;;
21661;SDS011;10992;48.170;8.596;2024-02-14T10:58:47;0.55;;;0.40;;
21661;SDS011;10992;48.170;8.596;2024-02-14T11:01:15;1.98;;;0.50;;
21661;SDS011;10992;48.170;8.596;2024-02-14T11:03:43;3.88;;;0.70;;
21661;SDS011;10992;48.170;8.596;2024-02-14T11:06:15;1.95;;;0.52;;
21661;SDS011;10992;48.170;8.596;2024-02-14T11:09:03;1.83;;;0.50;;
21661;SDS011;10992;48.170;8.596;2024-02-14T11:11:34;2.80;;;0.60;;
21661;SDS011;10992;48.170;8.596;2024-02-14T11:14:01;1.23;;;0.50;;
21661;SDS011;10992;48.170;8.596;2024-02-14T11:16:30;1.02;;;0.60;;
21661;SDS011;10992;48.170;8.596;2024-02-14T11:19:06;0.63;;;0.30;;
21661;SDS011;10992;48.170;8.596;2024-02-14T11:21:41;1.55;;;0.55;;
21661;SDS011;10992;48.170;8.596;2024-02-14T11:24:10;2.13;;;0.60;;
21661;SDS011;10992;48.170;8.596;2024-02-14T11:29:16;3.63;;;0.60;;
21661;SDS011;10992;48.170;8.596;2024-02-14T11:31:56;0.77;;;0.30;;
21661;SDS011;10992;48.170;8.596;2024-02-14T11:34:25;0.40;;;0.30;;
21661;SDS011;10992;48.170;8.596;2024-02-14T11:36:52;2.05;;;0.40;;
21661;SDS011;10992;48.170;8.596;2024-02-14T11:39:20;1.05;;;0.45;;
21661;SDS011;10992;48.170;8.596;2024-02-14T11:41:47;1.98;;;1.10;;
21661;SDS011;10992;48.170;8.596;2024-02-14T11:44:13;0.80;;;0.32;;
21661;SDS011;10992;48.170;8.596;2024-02-14T11:46:40;0.93;;;0.40;;
21661;SDS011;10992;48.170;8.596;2024-02-14T11:49:08;0.50;;;0.47;;
21661;SDS011;10992;48.170;8.596;2024-02-14T11:51:36;1.27;;;0.40;;
21661;SDS011;10992;48.170;8.596;2024-02-14T11:54:04;1.33;;;0.40;;
21661;SDS011;10992;48.170;8.596;2024-02-14T11:56:34;0.82;;;0.40;;
21661;SDS011;10992;48.170;8.596;2024-02-14T11:59:04;0.80;;;0.38;;
21661;SDS011;10992;48.170;8.596;2024-02-14T12:01:33;2.22;;;0.52;;
21661;SDS011;10992;48.170;8.596;2024-02-14T12:04:01;1.63;;;0.30;;
21661;SDS011;10992;48.170;8.596;2024-02-14T12:06:30;0.22;;;0.20;;
21661;SDS011;10992;48.170;8.596;2024-02-14T12:09:01;1.42;;;0.40;;
21661;SDS011;10992;48.170;8.596;2024-02-14T12:11:32;0.40;;;0.22;;
21661;SDS011;10992;48.170;8.596;2024-02-14T12:14:07;0.52;;;0.30;;
21661;SDS011;10992;48.170;8.596;2024-02-14T12:16:35;0.77;;;0.40;;
21661;SDS011;10992;48.170;8.596;2024-02-14T12:19:04;0.60;;;0.20;;
21661;SDS011;10992;48.170;8.596;2024-02-14T12:21:38;0.55;;;0.35;;
21661;SDS011;10992;48.170;8.596;2024-02-14T12:24:09;0.73;;;0.40;;
21661;SDS011;10992;48.170;8.596;2024-02-14T12:26:37;0.52;;;0.20;;
21661;SDS011;10992;48.170;8.596;2024-02-14T12:29:05;1.02;;;0.45;;
21661;SDS011;10992;48.170;8.596;2024-02-14T12:31:33;0.70;;;0.20;;
21661;SDS011;10992;48.170;8.596;2024-02-14T12:34:02;1.55;;;0.40;;
21661;SDS011;10992;48.170;8.596;2024-02-14T12:36:31;0.20;;;0.20;;
21661;SDS011;10992;48.170;8.596;2024-02-14T12:39:02;1.02;;;0.50;;
21661;SDS011;10992;48.170;8.596;2024-02-14T12:41:30;1.35;;;0.40;;
21661;SDS011;10992;48.170;8.596;2024-02-14T12:43:58;0.50;;;0.30;;
21661;SDS011;10992;48.170;8.596;2024-02-14T12:46:26;0.80;;;0.30;;
21661;SDS011;10992;48.170;8.596;2024-02-14T12:48:53;1.30;;;0.30;;
21661;SDS011;10992;48.170;8.596;2024-02-14T12:51:20;1.45;;;0.30;;
21661;SDS011;10992;48.170;8.596;2024-02-14T12:53:48;1.77;;;0.30;;
21661;SDS011;10992;48.170;8.596;2024-02-14T12:56:15;0.57;;;0.32;;
21661;SDS011;10992;48.170;8.596;2024-02-14T12:58:42;0.70;;;0.40;;
21661;SDS011;10992;48.170;8.596;2024-02-14T13:01:09;0.32;;;0.30;;
21661;SDS011;10992;48.170;8.596;2024-02-14T13:03:38;0.47;;;0.30;;
21661;SDS011;10992;48.170;8.596;2024-02-14T13:06:04;1.02;;;0.50;;
21661;SDS011;10992;48.170;8.596;2024-02-14T13:08:32;0.55;;;0.30;;
21661;SDS011;10992;48.170;8.596;2024-02-14T13:10:59;0.60;;;0.22;;
21661;SDS011;10992;48.170;8.596;2024-02-14T13:13:26;0.25;;;0.20;;
21661;SDS011;10992;48.170;8.596;2024-02-14T13:15:52;1.27;;;0.30;;
21661;SDS011;10992;48.170;8.596;2024-02-14T13:18:19;0.70;;;0.40;;
21661;SDS011;10992;48.170;8.596;2024-02-14T13:20:46;0.40;;;0.30;;
21661;SDS011;10992;48.170;8.596;2024-02-14T13:23:14;0.75;;;0.40;;
21661;SDS011;10992;48.170;8.596;2024-02-14T13:25:42;0.70;;;0.47;;
21661;SDS011;10992;48.170;8.596;2024-02-14T13:28:09;2.75;;;0.65;;
21661;SDS011;10992;48.170;8.596;2024-02-14T13:30:36;0.35;;;0.30;;
21661;SDS011;10992;48.170;8.596;2024-02-14T13:33:04;0.40;;;0.20;;
21661;SDS011;10992;48.170;8.596;2024-02-14T13:35:31;0.98;;;0.40;;
21661;SDS011;10992;48.170;8.596;2024-02-14T13:38:04;0.30;;;0.30;;
21661;SDS011;10992;48.170;8.596;2024-02-14T13:40:32;0.55;;;0.30;;
21661;SDS011;10992;48.170;8.596;2024-02-14T13:42:59;1.75;;;0.30;;
21661;SDS011;10992;48.170;8.596;2024-02-14T13:45:26;2.53;;;0.28;;
21661;SDS011;10992;48.170;8.596;2024-02-14T13:48:10;1.23;;;0.30;;
21661;SDS011;10992;48.170;8.596;2024-02-14T13:50:38;0.63;;;0.25;;
21661;SDS011;10992;48.170;8.596;2024-02-14T13:53:08;2.55;;;0.30;;
21661;SDS011;10992;48.170;8.596;2024-02-14T13:55:35;3.72;;;0.20;;
21661;SDS011;10992;48.170;8.596;2024-02-14T13:58:02;0.40;;;0.40;;
21661;SDS011;10992;48.170;8.596;2024-02-14T14:00:29;0.80;;;0.50;;
21661;SDS011;10992;48.170;8.596;2024-02-14T14:02:56;0.35;;;0.30;;
21661;SDS011;10992;48.170;8.596;2024-02-14T14:05:23;0.40;;;0.32;;
21661;SDS011;10992;48.170;8.596;2024-02-14T14:07:50;0.40;;;0.30;;
21661;SDS011;10992;48.170;8.596;2024-02-14T14:10:24;0.20;;;0.20;;
21661;SDS011;10992;48.170;8.596;2024-02-14T14:12:53;0.40;;;0.28;;
21661;SDS011;10992;48.170;8.596;2024-02-14T14:15:21;0.20;;;0.20;;
21661;SDS011;10992;48.170;8.596;2024-02-14T14:17:52;0.32;;;0.30;;
21661;SDS011;10992;48.170;8.596;2024-02-14T14:20:19;0.70;;;0.30;;
21661;SDS011;10992;48.170;8.596;2024-02-14T14:22:47;1.35;;;0.43;;
21661;SDS011;10992;48.170;8.596;2024-02-14T14:25:14;2.17;;;0.50;;
21661;SDS011;10992;48.170;8.596;2024-02-14T14:27:41;0.60;;;0.40;;
21661;SDS011;10992;48.170;8.596;2024-02-14T14:30:09;0.52;;;0.43;;
21661;SDS011;10992;48.170;8.596;2024-02-14T14:32:37;0.20;;;0.20;;
21661;SDS011;10992;48.170;8.596;2024-02-14T14:35:06;0.82;;;0.35;;
21661;SDS011;10992;48.170;8.596;2024-02-14T14:37:33;1.70;;;0.38;;
21661;SDS011;10992;48.170;8.596;2024-02-14T14:40:00;0.70;;;0.30;;
21661;SDS011;10992;48.170;8.596;2024-02-14T14:42:31;0.85;;;0.40;;
21661;SDS011;10992;48.170;8.596;2024-02-14T14:44:58;0.32;;;0.20;;
21661;SDS011;10992;48.170;8.596;2024-02-14T14:47:26;0.30;;;0.30;;
21661;SDS011;10992;48.170;8.596;2024-02-14T14:49:52;0.38;;;0.30;;
21661;SDS011;10992;48.170;8.596;2024-02-14T14:52:20;5.38;;;3.15;;
21661;SDS011;10992;48.170;8.596;2024-02-14T14:54:47;1.17;;;0.82;;